Time;durP1;ratioP1;P1;durP2;ratioP2;P2;SDS_P1;SDS_P2;PMS_P1;PMS_P2;Temp;Humidity;BMP_temperature;BMP_pressure;BME280_temperature;BME280_humidity;BME280_pressure;Samples;Min_cycle;Max_cycle;Signal;HPM_P1;HPM_P2
2022/04/05 00:01:53;;;;;;;7.68;4.68;;;;;;;;;;5029508;28;20046;-66
2022/04/05 00:04:19;;;;;;;6.70;4.97;;;;;;;;;;5023524;28;20152;-65
2022/04/05 00:06:46;;;;;;;6.47;4.95;;;;;;;;;;5029604;28;20061;-65
2022/04/05 00:09:12;;;;;;;7.20;4.97;;;;;;;;;;5023089;28;20550;-65
2022/04/05 00:11:38;;;;;;;7.38;5.13;;;;;;;;;;5031580;28;20056;-65
2022/04/05 00:14:05;;;;;;;9.05;5.50;;;;;;;;;;5035905;28;20053;-65
2022/04/05 00:16:31;;;;;;;4.97;3.63;;;;;;;;;;5029938;28;20041;-64
2022/04/05 00:18:57;;;;;;;2.72;2.13;;;;;;;;;;5036170;28;20137;-66
2022/04/05 00:21:24;;;;;;;3.00;2.17;;;;;;;;;;5022902;28;20061;-66
2022/04/05 00:23:50;;;;;;;3.60;2.20;;;;;;;;;;5028520;28;20061;-65
2022/04/05 00:26:16;;;;;;;2.60;1.70;;;;;;;;;;5017099;28;20053;-65
2022/04/05 00:28:43;;;;;;;2.60;1.77;;;;;;;;;;5024109;28;20053;-65
2022/04/05 00:31:09;;;;;;;2.22;1.60;;;;;;;;;;5031673;28;20060;-65
2022/04/05 00:33:36;;;;;;;5.00;1.40;;;;;;;;;;5034012;28;20092;-65
2022/04/05 00:36:02;;;;;;;1.10;1.00;;;;;;;;;;5021122;28;20053;-65
2022/04/05 00:38:28;;;;;;;1.83;0.80;;;;;;;;;;5019929;28;20049;-64
2022/04/05 00:40:55;;;;;;;2.13;0.60;;;;;;;;;;5025097;28;20045;-64
2022/04/05 00:43:21;;;;;;;2.55;0.90;;;;;;;;;;5020303;28;20143;-65
2022/04/05 00:45:48;;;;;;;1.10;0.68;;;;;;;;;;5041314;28;20053;-65
2022/04/05 00:48:25;;;;;;;1.35;0.57;;;;;;;;;;5028522;28;20144;-64
2022/04/05 00:50:51;;;;;;;1.52;0.60;;;;;;;;;;5023040;28;20045;-65
2022/04/05 00:53:19;;;;;;;2.60;0.88;;;;;;;;;;5035180;28;20415;-65
2022/04/05 00:55:46;;;;;;;1.80;0.80;;;;;;;;;;5013314;28;20053;-64
2022/04/05 00:58:14;;;;;;;1.30;0.85;;;;;;;;;;5027821;28;20064;-64
2022/04/05 01:00:40;;;;;;;0.68;0.65;;;;;;;;;;5020336;28;20418;-66
2022/04/05 01:03:08;;;;;;;0.98;0.73;;;;;;;;;;5027856;28;20069;-65
2022/04/05 01:05:35;;;;;;;2.50;0.77;;;;;;;;;;5029326;28;20064;-65
2022/04/05 01:08:03;;;;;;;2.22;1.35;;;;;;;;;;5036157;28;20044;-66
2022/04/05 01:10:29;;;;;;;1.67;0.70;;;;;;;;;;5024381;28;20907;-66
2022/04/05 01:12:56;;;;;;;1.67;0.88;;;;;;;;;;5034246;28;20056;-65
2022/04/05 01:15:23;;;;;;;2.30;0.90;;;;;;;;;;5029303;28;20049;-66
2022/04/05 01:17:50;;;;;;;1.60;1.10;;;;;;;;;;5033765;28;20049;-66
2022/04/05 01:20:16;;;;;;;1.90;1.00;;;;;;;;;;5027820;28;20049;-65
2022/04/05 01:22:49;;;;;;;2.55;1.20;;;;;;;;;;5023207;28;20049;-67
2022/04/05 01:25:16;;;;;;;2.45;1.08;;;;;;;;;;5018606;28;20053;-66
2022/04/05 01:27:43;;;;;;;2.42;1.23;;;;;;;;;;5027720;28;20779;-65
2022/04/05 01:30:10;;;;;;;2.25;1.10;;;;;;;;;;5021389;28;20053;-65
2022/04/05 01:32:37;;;;;;;4.45;1.58;;;;;;;;;;5031655;28;20045;-66
2022/04/05 01:35:04;;;;;;;1.83;1.13;;;;;;;;;;5015013;28;20056;-66
2022/04/05 01:37:32;;;;;;;3.08;1.88;;;;;;;;;;5014145;28;20147;-65
2022/04/05 01:39:58;;;;;;;2.55;1.20;;;;;;;;;;5029353;28;20518;-65
2022/04/05 01:42:25;;;;;;;4.05;1.30;;;;;;;;;;5036734;28;20510;-65
2022/04/05 01:44:51;;;;;;;1.95;1.23;;;;;;;;;;5035669;28;20528;-65
2022/04/05 01:47:18;;;;;;;3.90;1.10;;;;;;;;;;5022462;28;20053;-66
2022/04/05 01:49:45;;;;;;;1.42;1.10;;;;;;;;;;5030816;28;20065;-65
2022/04/05 01:52:12;;;;;;;1.05;0.90;;;;;;;;;;5028588;28;20457;-65
2022/04/05 01:54:39;;;;;;;1.30;1.10;;;;;;;;;;5024891;28;20061;-65
2022/04/05 01:57:05;;;;;;;1.45;1.10;;;;;;;;;;5031742;28;20060;-65
2022/04/05 01:59:33;;;;;;;3.35;1.20;;;;;;;;;;5029366;28;20057;-66
2022/04/05 02:02:03;;;;;;;3.88;1.20;;;;;;;;;;5025236;28;20058;-65
2022/04/05 02:04:29;;;;;;;3.72;1.30;;;;;;;;;;5016383;28;20053;-65
2022/04/05 02:06:55;;;;;;;2.83;1.20;;;;;;;;;;5034043;28;20060;-65
2022/04/05 02:09:21;;;;;;;2.22;1.30;;;;;;;;;;5042025;28;20417;-65
2022/04/05 02:11:48;;;;;;;5.45;1.40;;;;;;;;;;5030724;28;20056;-65
2022/04/05 02:14:15;;;;;;;4.55;1.75;;;;;;;;;;5026942;28;20049;-65
2022/04/05 02:16:42;;;;;;;4.13;1.95;;;;;;;;;;5022954;28;20056;-66
2022/04/05 02:19:09;;;;;;;2.75;1.50;;;;;;;;;;5024371;28;20084;-65
2022/04/05 02:21:35;;;;;;;5.13;1.60;;;;;;;;;;5021542;28;20064;-65
2022/04/05 02:24:01;;;;;;;4.90;1.70;;;;;;;;;;5038424;28;20382;-65
2022/04/05 02:26:28;;;;;;;4.25;1.67;;;;;;;;;;5024728;28;20053;-66
2022/04/05 02:28:54;;;;;;;2.80;1.40;;;;;;;;;;5022488;28;20053;-65
2022/04/05 02:31:21;;;;;;;5.28;1.40;;;;;;;;;;5024645;28;20041;-66
2022/04/05 02:33:47;;;;;;;2.50;1.45;;;;;;;;;;5034294;28;20097;-65
2022/04/05 02:36:14;;;;;;;3.20;1.50;;;;;;;;;;5040687;28;20041;-65
2022/04/05 02:38:40;;;;;;;2.97;1.45;;;;;;;;;;5032551;28;20553;-65
2022/04/05 02:41:06;;;;;;;5.60;1.90;;;;;;;;;;5035636;28;20055;-65
2022/04/05 02:43:33;;;;;;;3.40;1.52;;;;;;;;;;5030256;28;20048;-65
2022/04/05 02:46:00;;;;;;;5.35;1.80;;;;;;;;;;5034118;28;20060;-64
2022/04/05 02:48:26;;;;;;;3.15;1.80;;;;;;;;;;5041321;28;20059;-65
2022/04/05 02:50:53;;;;;;;2.80;1.40;;;;;;;;;;5031608;28;20045;-65
2022/04/05 02:53:19;;;;;;;2.63;1.70;;;;;;;;;;5039144;28;20045;-64
2022/04/05 02:55:46;;;;;;;3.22;1.55;;;;;;;;;;5030829;28;20486;-64
2022/04/05 02:58:12;;;;;;;3.83;1.85;;;;;;;;;;5032890;28;20334;-65
2022/04/05 03:00:39;;;;;;;6.35;2.00;;;;;;;;;;5040288;28;20430;-67
2022/04/05 03:03:06;;;;;;;6.43;2.22;;;;;;;;;;5030492;28;20075;-65
2022/04/05 03:05:32;;;;;;;4.78;2.10;;;;;;;;;;5031722;28;20049;-64
2022/04/05 03:07:58;;;;;;;7.07;2.10;;;;;;;;;;5018401;28;20057;-65
2022/04/05 03:10:25;;;;;;;4.10;1.85;;;;;;;;;;5026415;28;20279;-65
2022/04/05 03:12:51;;;;;;;6.47;2.53;;;;;;;;;;5014476;28;20049;-65
2022/04/05 03:15:17;;;;;;;6.57;2.42;;;;;;;;;;5026050;28;20055;-65
2022/04/05 03:17:45;;;;;;;5.75;2.20;;;;;;;;;;5038722;28;20581;-65
2022/04/05 03:20:12;;;;;;;7.03;2.63;;;;;;;;;;5023705;28;20051;-65
2022/04/05 03:22:39;;;;;;;4.13;2.47;;;;;;;;;;5030090;28;20136;-66
2022/04/05 03:25:05;;;;;;;4.70;2.50;;;;;;;;;;5022676;28;20049;-65
2022/04/05 03:27:32;;;;;;;6.35;2.63;;;;;;;;;;5024978;28;20045;-65
2022/04/05 03:29:58;;;;;;;3.78;2.50;;;;;;;;;;5032917;28;20060;-65
2022/04/05 03:32:24;;;;;;;4.40;2.40;;;;;;;;;;5058086;28;20056;-65
2022/04/05 03:34:52;;;;;;;5.03;2.33;;;;;;;;;;5033380;28;20064;-65
2022/04/05 03:37:18;;;;;;;5.95;2.28;;;;;;;;;;5023277;28;20425;-65
2022/04/05 03:39:45;;;;;;;3.88;2.30;;;;;;;;;;5037372;28;20517;-65
2022/04/05 03:42:11;;;;;;;2.97;2.10;;;;;;;;;;5026064;28;20490;-65
2022/04/05 03:44:37;;;;;;;4.63;2.40;;;;;;;;;;5032965;28;20049;-66
2022/04/05 03:47:04;;;;;;;4.43;2.40;;;;;;;;;;5012783;28;20425;-65
2022/04/05 03:49:30;;;;;;;6.07;2.47;;;;;;;;;;5046483;28;20052;-65
2022/04/05 03:51:56;;;;;;;5.32;2.28;;;;;;;;;;5051506;28;20096;-65
2022/04/05 03:54:22;;;;;;;3.70;2.55;;;;;;;;;;5028697;28;20175;-65
2022/04/05 03:56:49;;;;;;;4.90;2.42;;;;;;;;;;5028867;28;20048;-65
2022/04/05 03:59:15;;;;;;;7.03;2.75;;;;;;;;;;5022417;28;20045;-66
2022/04/05 04:01:41;;;;;;;6.30;2.70;;;;;;;;;;5030927;28;20045;-66
2022/04/05 04:04:08;;;;;;;4.72;2.97;;;;;;;;;;5023156;28;20243;-65
2022/04/05 04:06:34;;;;;;;7.22;3.30;;;;;;;;;;5031922;28;20049;-66
2022/04/05 04:09:01;;;;;;;4.18;2.80;;;;;;;;;;5027835;28;20046;-66
2022/04/05 04:11:27;;;;;;;6.00;3.17;;;;;;;;;;5001704;28;20045;-65
2022/04/05 04:13:53;;;;;;;5.60;3.22;;;;;;;;;;5029302;28;20060;-66
2022/04/05 04:16:20;;;;;;;7.93;3.03;;;;;;;;;;5024534;28;20046;-66
2022/04/05 04:18:46;;;;;;;5.57;3.10;;;;;;;;;;5032758;28;20060;-66
2022/04/05 04:21:13;;;;;;;4.97;3.33;;;;;;;;;;5035922;28;20056;-66
2022/04/05 04:23:39;;;;;;;5.95;3.00;;;;;;;;;;5031325;28;20132;-66
2022/04/05 04:26:06;;;;;;;7.00;3.30;;;;;;;;;;5037744;28;20498;-66
2022/04/05 04:28:32;;;;;;;6.63;2.97;;;;;;;;;;5029071;28;20502;-65
2022/04/05 04:30:59;;;;;;;7.13;3.75;;;;;;;;;;5040959;28;20980;-65
2022/04/05 04:33:25;;;;;;;8.38;3.47;;;;;;;;;;5030101;28;20551;-65
2022/04/05 04:35:52;;;;;;;6.32;3.20;;;;;;;;;;5032615;28;20073;-66
2022/04/05 04:38:19;;;;;;;5.15;3.28;;;;;;;;;;5017488;28;20132;-65
2022/04/05 04:40:46;;;;;;;7.03;3.58;;;;;;;;;;5035097;28;20691;-65
2022/04/05 04:43:16;;;;;;;6.82;3.85;;;;;;;;;;5028503;28;20049;-66
2022/04/05 04:45:42;;;;;;;7.80;3.83;;;;;;;;;;5024577;28;20474;-66
2022/04/05 04:48:09;;;;;;;6.22;3.58;;;;;;;;;;5043544;28;20050;-66
2022/04/05 04:50:35;;;;;;;5.55;3.75;;;;;;;;;;5017575;28;20054;-65
2022/04/05 04:53:01;;;;;;;8.15;3.53;;;;;;;;;;5043744;28;20056;-66
2022/04/05 04:55:28;;;;;;;9.38;4.80;;;;;;;;;;5019930;28;20057;-66
2022/04/05 04:58:14;;;;;;;8.10;3.85;;;;;;;;;;5029019;28;20056;-66
2022/04/05 05:00:40;;;;;;;8.27;4.50;;;;;;;;;;5029194;28;20049;-66
2022/04/05 05:03:07;;;;;;;6.47;4.40;;;;;;;;;;5021356;28;20060;-65
2022/04/05 05:05:33;;;;;;;8.07;4.53;;;;;;;;;;5023807;28;20422;-65
2022/04/05 05:07:59;;;;;;;7.60;4.55;;;;;;;;;;5015971;28;20068;-66
2022/04/05 05:10:26;;;;;;;13.18;5.78;;;;;;;;;;5030322;28;20045;-65
2022/04/05 05:12:52;;;;;;;9.82;5.07;;;;;;;;;;5019955;28;20053;-66
2022/04/05 05:15:19;;;;;;;7.85;5.30;;;;;;;;;;5028449;28;20061;-66
2022/04/05 05:17:46;;;;;;;9.50;5.63;;;;;;;;;;5036084;28;20487;-66
2022/04/05 05:20:13;;;;;;;10.95;5.80;;;;;;;;;;5024192;28;20585;-66
2022/04/05 05:22:39;;;;;;;10.75;5.40;;;;;;;;;;5037985;28;20052;-66
2022/04/05 05:25:06;;;;;;;8.73;5.85;;;;;;;;;;5040664;28;20083;-66
2022/04/05 05:27:33;;;;;;;10.10;6.43;;;;;;;;;;5046343;28;20060;-66
2022/04/05 05:30:00;;;;;;;14.57;6.53;;;;;;;;;;5025405;28;21148;-66
2022/04/05 05:32:26;;;;;;;10.38;6.07;;;;;;;;;;5023065;28;20045;-66
2022/04/05 05:34:53;;;;;;;13.15;6.68;;;;;;;;;;5024128;28;20277;-66
2022/04/05 05:37:19;;;;;;;11.35;6.20;;;;;;;;;;5020605;28;20045;-66
2022/04/05 05:39:45;;;;;;;10.65;5.55;;;;;;;;;;5037127;28;20050;-66
2022/04/05 05:42:11;;;;;;;11.30;6.50;;;;;;;;;;5017464;28;20078;-66
2022/04/05 05:44:38;;;;;;;9.57;6.18;;;;;;;;;;5039633;28;20053;-66
2022/04/05 05:47:09;;;;;;;14.05;6.78;;;;;;;;;;5027920;28;20576;-66
2022/04/05 05:49:35;;;;;;;13.30;7.85;;;;;;;;;;5044786;28;20048;-66
2022/04/05 05:52:01;;;;;;;13.90;8.00;;;;;;;;;;5035783;28;20167;-66
2022/04/05 05:54:27;;;;;;;13.68;8.35;;;;;;;;;;5020556;28;20054;-66
2022/04/05 05:56:54;;;;;;;14.25;8.75;;;;;;;;;;5042925;28;20041;-66
2022/04/05 05:59:21;;;;;;;14.38;8.50;;;;;;;;;;5016185;28;20051;-66
2022/04/05 06:01:47;;;;;;;16.50;9.10;;;;;;;;;;5028936;28;20703;-66
2022/04/05 06:04:14;;;;;;;16.35;9.70;;;;;;;;;;5020196;28;20052;-66
2022/04/05 06:06:40;;;;;;;14.75;9.25;;;;;;;;;;5026417;28;20402;-66
2022/04/05 06:09:06;;;;;;;15.20;9.18;;;;;;;;;;5027420;28;20064;-66
2022/04/05 06:11:33;;;;;;;16.95;10.50;;;;;;;;;;5026893;28;20049;-66
2022/04/05 06:13:59;;;;;;;21.20;10.82;;;;;;;;;;5029058;28;20075;-66
2022/04/05 06:16:25;;;;;;;18.35;12.05;;;;;;;;;;5028123;28;20052;-66
2022/04/05 06:18:57;;;;;;;20.05;12.60;;;;;;;;;;5037884;28;20045;-66
2022/04/05 06:21:24;;;;;;;22.58;12.07;;;;;;;;;;5025528;28;20681;-66
2022/04/05 06:23:52;;;;;;;18.17;11.48;;;;;;;;;;5025582;28;20782;-66
2022/04/05 06:26:18;;;;;;;18.70;11.77;;;;;;;;;;5021898;28;20053;-66
2022/04/05 06:28:45;;;;;;;19.60;13.10;;;;;;;;;;5014876;28;20056;-66
2022/04/05 06:31:11;;;;;;;21.33;13.40;;;;;;;;;;5028679;28;20447;-67
2022/04/05 06:33:38;;;;;;;17.05;11.68;;;;;;;;;;5026369;28;20418;-67
2022/04/05 06:36:04;;;;;;;17.60;11.60;;;;;;;;;;5025322;28;20051;-66
2022/04/05 06:38:30;;;;;;;18.27;11.50;;;;;;;;;;5027820;28;20049;-67
2022/04/05 06:41:00;;;;;;;21.08;13.73;;;;;;;;;;5027846;28;20049;-66
2022/04/05 06:43:28;;;;;;;21.58;12.65;;;;;;;;;;5024527;28;20561;-66
2022/04/05 06:45:54;;;;;;;19.77;11.95;;;;;;;;;;5020003;28;20052;-67
2022/04/05 06:48:20;;;;;;;18.13;11.20;;;;;;;;;;5028506;28;20056;-66
2022/04/05 06:50:47;;;;;;;19.10;12.50;;;;;;;;;;5020573;28;20426;-67
2022/04/05 06:53:13;;;;;;;16.77;10.93;;;;;;;;;;5026877;28;20054;-67
2022/04/05 06:55:40;;;;;;;22.02;11.32;;;;;;;;;;5004442;28;20057;-67
2022/04/05 06:58:08;;;;;;;18.00;11.45;;;;;;;;;;5036473;28;20057;-66
2022/04/05 07:00:34;;;;;;;18.57;11.00;;;;;;;;;;5026531;28;20045;-66
2022/04/05 07:03:01;;;;;;;21.05;11.07;;;;;;;;;;5035263;28;20365;-67
2022/04/05 07:05:28;;;;;;;19.38;12.30;;;;;;;;;;5040135;28;20379;-67
2022/04/05 07:07:55;;;;;;;19.67;11.80;;;;;;;;;;5026798;28;20061;-67
2022/04/05 07:10:21;;;;;;;17.65;11.40;;;;;;;;;;5032876;28;20072;-67
2022/04/05 07:12:48;;;;;;;16.40;10.63;;;;;;;;;;5027751;28;20048;-67
2022/04/05 07:15:14;;;;;;;18.60;10.93;;;;;;;;;;5028884;28;20473;-66
2022/04/05 07:17:41;;;;;;;29.13;10.90;;;;;;;;;;5024955;28;20053;-67
2022/04/05 07:20:28;;;;;;;17.55;9.73;;;;;;;;;;5022625;28;20744;-66
2022/04/05 07:22:54;;;;;;;15.68;9.43;;;;;;;;;;5030398;28;20049;-67
2022/04/05 07:25:20;;;;;;;16.95;9.30;;;;;;;;;;5030240;28;20041;-67
2022/04/05 07:27:47;;;;;;;15.30;8.65;;;;;;;;;;5028845;28;20053;-67
2022/04/05 07:30:14;;;;;;;16.42;9.57;;;;;;;;;;5019464;28;20045;-67
2022/04/05 07:32:42;;;;;;;22.67;10.20;;;;;;;;;;5046185;28;20052;-66
2022/04/05 07:35:08;;;;;;;15.13;9.27;;;;;;;;;;5028342;28;20331;-66
2022/04/05 07:37:35;;;;;;;17.02;8.18;;;;;;;;;;5018574;28;20060;-67
2022/04/05 07:40:05;;;;;;;14.05;8.48;;;;;;;;;;5034454;28;20520;-67
2022/04/05 07:42:32;;;;;;;14.27;8.00;;;;;;;;;;5035718;28;20065;-67
2022/04/05 07:44:58;;;;;;;15.68;9.32;;;;;;;;;;5025418;28;20064;-66
2022/04/05 07:47:24;;;;;;;17.00;8.43;;;;;;;;;;5031214;28;20087;-66
2022/04/05 07:49:51;;;;;;;19.00;7.85;;;;;;;;;;5025558;28;20049;-67
2022/04/05 07:52:17;;;;;;;12.63;7.90;;;;;;;;;;5030014;28;20057;-67
2022/04/05 07:54:43;;;;;;;16.92;8.02;;;;;;;;;;5015914;28;20046;-67
2022/04/05 07:57:10;;;;;;;16.85;8.48;;;;;;;;;;5032451;28;20422;-67
2022/04/05 07:59:37;;;;;;;15.40;7.68;;;;;;;;;;5031900;28;20049;-66
2022/04/05 08:02:03;;;;;;;11.77;7.05;;;;;;;;;;5026540;28;20057;-66
2022/04/05 08:04:49;;;;;;;12.60;6.95;;;;;;;;;;5033485;28;20115;-67
2022/04/05 08:07:16;;;;;;;14.98;8.45;;;;;;;;;;5037745;28;20052;-67
2022/04/05 08:09:42;;;;;;;10.15;6.78;;;;;;;;;;5044023;28;20379;-67
2022/04/05 08:12:09;;;;;;;13.25;7.68;;;;;;;;;;5036794;28;20049;-67
2022/04/05 08:14:35;;;;;;;15.15;7.63;;;;;;;;;;5043977;28;20424;-66
2022/04/05 08:17:01;;;;;;;12.55;7.80;;;;;;;;;;5018703;28;20056;-66
2022/04/05 08:19:28;;;;;;;14.60;6.93;;;;;;;;;;5043800;28;20041;-66
2022/04/05 08:21:54;;;;;;;11.63;7.22;;;;;;;;;;5037823;28;20045;-67
2022/04/05 08:24:20;;;;;;;10.55;6.30;;;;;;;;;;5022223;28;20061;-68
2022/04/05 08:26:47;;;;;;;11.55;6.10;;;;;;;;;;5039171;28;20055;-67
2022/04/05 08:29:13;;;;;;;13.65;6.25;;;;;;;;;;5017131;28;20053;-67
2022/04/05 08:31:40;;;;;;;17.30;6.63;;;;;;;;;;5040535;28;20055;-66
2022/04/05 08:34:10;;;;;;;11.70;6.10;;;;;;;;;;5025302;28;20127;-66
2022/04/05 08:36:37;;;;;;;11.52;6.20;;;;;;;;;;5028975;28;20053;-66
2022/04/05 08:39:03;;;;;;;12.85;6.05;;;;;;;;;;5027971;28;20056;-66
2022/04/05 08:41:35;;;;;;;11.43;6.22;;;;;;;;;;5039180;28;20053;-66
2022/04/05 08:44:02;;;;;;;12.57;7.13;;;;;;;;;;5034007;28;20099;-66
2022/04/05 08:46:31;;;;;;;12.70;6.57;;;;;;;;;;5030817;28;20245;-66
2022/04/05 08:48:57;;;;;;;12.95;6.28;;;;;;;;;;5028950;28;20049;-66
2022/04/05 08:51:24;;;;;;;11.55;7.28;;;;;;;;;;5027306;28;20045;-67
2022/04/05 08:53:50;;;;;;;13.73;6.63;;;;;;;;;;5026907;28;20060;-66
2022/04/05 08:56:16;;;;;;;13.43;6.32;;;;;;;;;;5028233;28;20045;-66
2022/04/05 08:58:43;;;;;;;10.40;6.13;;;;;;;;;;5028271;28;20057;-66
2022/04/05 09:01:09;;;;;;;12.60;6.82;;;;;;;;;;5039620;28;20060;-66
2022/04/05 09:03:36;;;;;;;9.20;5.28;;;;;;;;;;5029571;28;20049;-66
2022/04/05 09:06:21;;;;;;;10.75;5.65;;;;;;;;;;5039003;28;20566;-67
2022/04/05 09:08:47;;;;;;;9.10;5.97;;;;;;;;;;5022646;28;20045;-67
2022/04/05 09:11:14;;;;;;;11.52;6.25;;;;;;;;;;5022203;28;20714;-67
2022/04/05 09:13:40;;;;;;;13.02;6.13;;;;;;;;;;5018986;28;20107;-66
2022/04/05 09:16:08;;;;;;;12.02;6.10;;;;;;;;;;5033409;28;20518;-67
2022/04/05 09:18:35;;;;;;;9.53;5.90;;;;;;;;;;5030224;28;20096;-67
2022/04/05 09:21:03;;;;;;;10.43;6.07;;;;;;;;;;5024081;28;20049;-66
2022/04/05 09:23:33;;;;;;;12.30;6.30;;;;;;;;;;5024580;28;20061;-66
2022/04/05 09:26:03;;;;;;;8.10;5.60;;;;;;;;;;5019973;28;20087;-66
2022/04/05 09:28:31;;;;;;;11.75;6.05;;;;;;;;;;5037727;28;20073;-66
2022/04/05 09:31:02;;;;;;;12.75;6.40;;;;;;;;;;5021750;28;20069;-65
2022/04/05 09:33:30;;;;;;;10.27;6.00;;;;;;;;;;5032259;28;20049;-66
2022/04/05 09:36:04;;;;;;;11.10;5.95;;;;;;;;;;5052065;28;20053;-65
2022/04/05 09:38:30;;;;;;;11.10;5.63;;;;;;;;;;5024212;28;20414;-65
2022/04/05 09:41:13;;;;;;;14.25;5.50;;;;;;;;;;5026520;28;20045;-66
2022/04/05 09:43:59;;;;;;;9.57;5.30;;;;;;;;;;5022654;28;20446;-66
2022/04/05 09:46:26;;;;;;;9.85;4.30;;;;;;;;;;5038241;28;20048;-66
2022/04/05 09:49:06;;;;;;;7.45;4.50;;;;;;;;;;5028561;28;20040;-66
2022/04/05 09:51:37;;;;;;;9.82;4.88;;;;;;;;;;5037555;28;20045;-66
2022/04/05 09:54:03;;;;;;;8.18;4.75;;;;;;;;;;5024280;28;20537;-66
2022/04/05 09:56:31;;;;;;;7.50;4.45;;;;;;;;;;5037507;28;20045;-66
2022/04/05 09:59:02;;;;;;;9.05;4.03;;;;;;;;;;5042957;28;20045;-66
2022/04/05 10:01:30;;;;;;;7.03;3.67;;;;;;;;;;5031716;28;20046;-66
2022/04/05 10:04:00;;;;;;;6.73;4.30;;;;;;;;;;5044784;28;20148;-66
2022/04/05 10:06:28;;;;;;;10.02;4.78;;;;;;;;;;5027133;28;20425;-66
2022/04/05 10:08:55;;;;;;;7.80;4.13;;;;;;;;;;5040051;28;20048;-66
2022/04/05 10:11:25;;;;;;;5.85;3.90;;;;;;;;;;5026199;28;20526;-66
2022/04/05 10:13:52;;;;;;;7.80;3.78;;;;;;;;;;5040322;28;20373;-66
2022/04/05 10:16:19;;;;;;;5.18;3.30;;;;;;;;;;5030034;28;20056;-66
2022/04/05 10:19:05;;;;;;;5.95;4.40;;;;;;;;;;5035526;28;20070;-66
2022/04/05 10:21:36;;;;;;;7.15;3.75;;;;;;;;;;5030188;28;20056;-66
2022/04/05 10:24:06;;;;;;;6.20;4.20;;;;;;;;;;5021738;28;20045;-66
2022/04/05 10:26:33;;;;;;;9.68;4.97;;;;;;;;;;5038757;28;20056;-66
2022/04/05 10:29:01;;;;;;;8.98;5.20;;;;;;;;;;5026249;28;20049;-66
2022/04/05 10:31:46;;;;;;;7.63;4.60;;;;;;;;;;5033736;28;20045;-66
2022/04/05 10:34:31;;;;;;;9.07;5.25;;;;;;;;;;5012576;28;20526;-66
2022/04/05 10:37:03;;;;;;;9.55;5.38;;;;;;;;;;5035217;28;20155;-67
2022/04/05 10:39:30;;;;;;;8.63;5.40;;;;;;;;;;5036318;28;20395;-67
2022/04/05 10:42:08;;;;;;;11.27;6.18;;;;;;;;;;5015544;28;20049;-66
2022/04/05 10:44:35;;;;;;;;;;;;;;;;;;5026914;28;20053;-67
2022/04/05 10:47:04;;;;;;;7.60;6.03;;;;;;;;;;5010320;28;20321;-67
2022/04/05 10:49:51;;;;;;;9.75;6.20;;;;;;;;;;5016821;28;20049;-67
2022/04/05 10:52:26;;;;;;;12.15;6.20;;;;;;;;;;5021692;28;20585;-67
2022/04/05 10:54:59;;;;;;;10.60;6.50;;;;;;;;;;5018278;28;20056;-67
2022/04/05 10:57:32;;;;;;;9.35;5.60;;;;;;;;;;5017351;28;20053;-66
2022/04/05 11:00:02;;;;;;;11.07;6.47;;;;;;;;;;5017781;28;20470;-66
2022/04/05 11:02:35;;;;;;;10.50;5.68;;;;;;;;;;5017480;28;20413;-67
2022/04/05 11:05:14;;;;;;;11.35;6.35;;;;;;;;;;5014080;28;20061;-67
2022/04/05 11:07:59;;;;;;;9.73;6.25;;;;;;;;;;5021239;28;20053;-67
2022/04/05 11:10:45;;;;;;;11.95;5.45;;;;;;;;;;5014772;28;20185;-67
2022/04/05 11:13:13;;;;;;;12.38;6.28;;;;;;;;;;5023819;28;20061;-67
2022/04/05 11:15:45;;;;;;;10.30;6.63;;;;;;;;;;5005414;28;20134;-67
2022/04/05 11:18:13;;;;;;;9.55;6.15;;;;;;;;;;5030295;28;20053;-66
2022/04/05 11:20:44;;;;;;;9.15;6.30;;;;;;;;;;5040717;28;20056;-67
2022/04/05 11:23:11;;;;;;;9.30;6.78;;;;;;;;;;5039606;28;20526;-66
2022/04/05 11:25:37;;;;;;;11.27;6.95;;;;;;;;;;5036756;28;20568;-66
2022/04/05 11:28:19;;;;;;;10.85;5.93;;;;;;;;;;5034489;28;20053;-66
2022/04/05 11:31:06;;;;;;;12.32;6.22;;;;;;;;;;5031202;28;20072;-66
2022/04/05 11:33:36;;;;;;;9.70;5.90;;;;;;;;;;5016305;28;20056;-66
2022/04/05 11:36:04;;;;;;;10.10;5.55;;;;;;;;;;5028642;28;20057;-66
2022/04/05 11:38:31;;;;;;;10.48;6.18;;;;;;;;;;5026024;28;20057;-66
2022/04/05 11:41:00;;;;;;;9.43;5.38;;;;;;;;;;5033007;28;20146;-66
2022/04/05 11:43:28;;;;;;;11.80;6.15;;;;;;;;;;5018942;28;20049;-66
2022/04/05 11:45:56;;;;;;;9.27;5.70;;;;;;;;;;5026783;28;20060;-67
2022/04/05 11:48:23;;;;;;;9.98;5.85;;;;;;;;;;5025317;28;20054;-66
2022/04/05 11:50:50;;;;;;;8.73;5.43;;;;;;;;;;5028527;28;20517;-66
2022/04/05 11:53:17;;;;;;;10.40;5.65;;;;;;;;;;5029226;28;20592;-66
2022/04/05 11:56:01;;;;;;;8.43;4.97;;;;;;;;;;5017307;28;20503;-66
2022/04/05 11:58:29;;;;;;;10.98;5.80;;;;;;;;;;5019546;28;20060;-66
2022/04/05 12:00:57;;;;;;;12.38;6.30;;;;;;;;;;5019353;28;20060;-66
2022/04/05 12:03:24;;;;;;;11.98;6.78;;;;;;;;;;5021152;28;20057;-66
2022/04/05 12:05:52;;;;;;;10.77;6.18;;;;;;;;;;5028036;28;20049;-66
2022/04/05 12:08:18;;;;;;;9.05;6.18;;;;;;;;;;5027077;28;20050;-66
2022/04/05 12:10:45;;;;;;;9.63;6.55;;;;;;;;;;5034015;28;20052;-66
2022/04/05 12:13:11;;;;;;;9.80;6.50;;;;;;;;;;5011326;28;20067;-66
2022/04/05 12:15:38;;;;;;;12.98;6.68;;;;;;;;;;5038103;28;20081;-67
2022/04/05 12:18:14;;;;;;;12.50;6.35;;;;;;;;;;5030067;28;20055;-67
2022/04/05 12:20:40;;;;;;;9.43;6.57;;;;;;;;;;5015045;28;20049;-66
2022/04/05 12:23:19;;;;;;;11.70;6.40;;;;;;;;;;5036141;28;20048;-67
2022/04/05 12:26:05;;;;;;;10.25;6.03;;;;;;;;;;5045237;28;20044;-67
2022/04/05 12:28:36;;;;;;;11.25;5.93;;;;;;;;;;5023444;28;20053;-66
2022/04/05 12:31:03;;;;;;;11.55;6.60;;;;;;;;;;5017849;28;20738;-66
2022/04/05 12:33:30;;;;;;;12.45;5.47;;;;;;;;;;5042674;28;20041;-66
2022/04/05 12:35:57;;;;;;;7.78;3.97;;;;;;;;;;5029247;28;20041;-67
2022/04/05 12:38:23;;;;;;;9.65;4.88;;;;;;;;;;5025383;28;20483;-67
2022/04/05 12:40:50;;;;;;;7.45;5.38;;;;;;;;;;5032756;28;20041;-67
2022/04/05 12:43:17;;;;;;;9.68;5.40;;;;;;;;;;5030667;28;20411;-66
2022/04/05 12:45:43;;;;;;;9.80;4.85;;;;;;;;;;5035326;28;20053;-67
2022/04/05 12:48:14;;;;;;;8.13;4.90;;;;;;;;;;5023655;28;20053;-66
2022/04/05 12:50:42;;;;;;;6.95;5.00;;;;;;;;;;5020256;28;20282;-65
2022/04/05 12:53:08;;;;;;;7.85;6.10;;;;;;;;;;5037339;28;20045;-65
2022/04/05 12:55:35;;;;;;;9.00;6.47;;;;;;;;;;5023393;28;20049;-66
2022/04/05 12:58:01;;;;;;;8.93;7.07;;;;;;;;;;5036061;28;20045;-66
2022/04/05 13:00:28;;;;;;;8.13;7.22;;;;;;;;;;5015093;28;20050;-66
2022/04/05 13:03:03;;;;;;;12.50;8.70;;;;;;;;;;5022040;28;20094;-66
2022/04/05 13:08:17;;;;;;;15.70;8.55;;;;;;;;;;5012377;28;20049;-66
2022/04/05 13:10:47;;;;;;;10.82;8.27;;;;;;;;;;5020399;28;20053;-66
2022/04/05 13:13:24;;;;;;;13.48;8.82;;;;;;;;;;5013490;28;20072;-66
2022/04/05 13:16:05;;;;;;;12.97;8.73;;;;;;;;;;5021784;28;20053;-66
2022/04/05 13:18:38;;;;;;;10.52;8.13;;;;;;;;;;5010532;28;20053;-66
2022/04/05 13:21:06;;;;;;;9.43;8.15;;;;;;;;;;5020008;28;20049;-66
2022/04/05 13:23:33;;;;;;;12.50;8.85;;;;;;;;;;5027136;28;20052;-66
2022/04/05 13:26:00;;;;;;;11.18;7.55;;;;;;;;;;5029816;28;20057;-66
2022/04/05 13:28:34;;;;;;;8.52;7.45;;;;;;;;;;5031158;28;20057;-66
2022/04/05 13:31:08;;;;;;;10.70;7.78;;;;;;;;;;5014041;28;20056;-66
2022/04/05 13:33:35;;;;;;;9.40;6.82;;;;;;;;;;5027538;28;20116;-66
2022/04/05 13:36:01;;;;;;;10.30;6.85;;;;;;;;;;5024142;28;20798;-66
2022/04/05 13:38:28;;;;;;;9.32;6.53;;;;;;;;;;5028522;28;20322;-66
2022/04/05 13:40:54;;;;;;;8.35;6.40;;;;;;;;;;5021232;28;20054;-66
2022/04/05 13:43:21;;;;;;;7.55;6.47;;;;;;;;;;5022914;28;20045;-66
2022/04/05 13:45:48;;;;;;;9.82;6.75;;;;;;;;;;5044469;28;20053;-66
2022/04/05 13:48:15;;;;;;;8.98;6.30;;;;;;;;;;5015470;28;20122;-66
2022/04/05 13:50:41;;;;;;;8.60;6.57;;;;;;;;;;5024341;28;20201;-66
2022/04/05 13:53:07;;;;;;;8.52;6.75;;;;;;;;;;5015377;28;20499;-66
2022/04/05 13:55:33;;;;;;;8.32;6.22;;;;;;;;;;5019769;28;20088;-66
2022/04/05 13:58:00;;;;;;;8.60;7.10;;;;;;;;;;5012760;28;20358;-66
2022/04/05 14:00:26;;;;;;;10.63;7.25;;;;;;;;;;5017350;28;20049;-65
2022/04/05 14:02:54;;;;;;;9.35;7.30;;;;;;;;;;5016067;28;20063;-66
2022/04/05 14:05:21;;;;;;;9.00;6.28;;;;;;;;;;5012877;28;20525;-66
2022/04/05 14:07:47;;;;;;;9.38;7.25;;;;;;;;;;5021836;28;20488;-66
2022/04/05 14:10:13;;;;;;;9.52;7.43;;;;;;;;;;5035501;28;20049;-65
2022/04/05 14:13:00;;;;;;;13.40;8.18;;;;;;;;;;5021475;28;20116;-65
2022/04/05 14:15:26;;;;;;;10.38;8.65;;;;;;;;;;5014626;28;20078;-66
2022/04/05 14:17:52;;;;;;;12.65;8.88;;;;;;;;;;5021258;28;20053;-66
2022/04/05 14:20:19;;;;;;;10.73;8.45;;;;;;;;;;5023735;28;20045;-66
2022/04/05 14:22:45;;;;;;;10.05;8.15;;;;;;;;;;5013727;28;20049;-66
2022/04/05 14:25:11;;;;;;;8.43;7.43;;;;;;;;;;5023558;28;20057;-66
2022/04/05 14:27:38;;;;;;;9.60;8.07;;;;;;;;;;5023885;28;20043;-65
2022/04/05 14:30:04;;;;;;;10.90;7.80;;;;;;;;;;5030298;28;20045;-66
2022/04/05 14:32:31;;;;;;;9.93;7.65;;;;;;;;;;5017209;28;20056;-65
2022/04/05 14:34:57;;;;;;;10.75;8.30;;;;;;;;;;5038628;28;20469;-66
2022/04/05 14:37:44;;;;;;;11.07;8.00;;;;;;;;;;5038853;28;20502;-66
2022/04/05 14:40:10;;;;;;;11.13;7.65;;;;;;;;;;5026435;28;20321;-66
2022/04/05 14:42:37;;;;;;;10.27;7.00;;;;;;;;;;5033811;28;20366;-66
2022/04/05 14:45:23;;;;;;;10.77;8.07;;;;;;;;;;5029845;28;20064;-65